sensor_id;sensor_type;location;lat;lon;timestamp;P1;durP1;ratioP1;P2;durP2;ratioP2
39066;SDS011;24821;51.988;6.020;2022-08-03T00:00:37;9.38;;;8.77;;
39066;SDS011;24821;51.988;6.020;2022-08-03T00:03:03;9.82;;;9.10;;
39066;SDS011;24821;51.988;6.020;2022-08-03T00:05:29;10.15;;;9.45;;
39066;SDS011;24821;51.988;6.020;2022-08-03T00:07:57;9.55;;;8.85;;
39066;SDS011;24821;51.988;6.020;2022-08-03T00:10:23;8.70;;;8.10;;
39066;SDS011;24821;51.988;6.020;2022-08-03T00:12:49;9.30;;;8.80;;
39066;SDS011;24821;51.988;6.020;2022-08-03T00:15:14;8.20;;;7.68;;
39066;SDS011;24821;51.988;6.020;2022-08-03T00:17:40;9.07;;;8.48;;
39066;SDS011;24821;51.988;6.020;2022-08-03T00:20:06;9.65;;;8.75;;
39066;SDS011;24821;51.988;6.020;2022-08-03T00:22:33;10.30;;;9.57;;
39066;SDS011;24821;51.988;6.020;2022-08-03T00:24:59;10.20;;;9.50;;
39066;SDS011;24821;51.988;6.020;2022-08-03T00:27:24;9.45;;;9.05;;
39066;SDS011;24821;51.988;6.020;2022-08-03T00:29:50;10.85;;;10.15;;
39066;SDS011;24821;51.988;6.020;2022-08-03T00:32:15;11.27;;;10.40;;
39066;SDS011;24821;51.988;6.020;2022-08-03T00:34:41;11.90;;;11.23;;
39066;SDS011;24821;51.988;6.020;2022-08-03T00:37:07;12.45;;;11.65;;
39066;SDS011;24821;51.988;6.020;2022-08-03T00:39:32;11.98;;;11.18;;
39066;SDS011;24821;51.988;6.020;2022-08-03T00:42:00;13.57;;;12.88;;
39066;SDS011;24821;51.988;6.020;2022-08-03T00:44:27;13.70;;;12.85;;
39066;SDS011;24821;51.988;6.020;2022-08-03T00:46:53;15.07;;;14.20;;
39066;SDS011;24821;51.988;6.020;2022-08-03T00:49:18;14.73;;;13.95;;
39066;SDS011;24821;51.988;6.020;2022-08-03T00:51:44;15.50;;;14.57;;
39066;SDS011;24821;51.988;6.020;2022-08-03T00:54:09;16.38;;;15.57;;
39066;SDS011;24821;51.988;6.020;2022-08-03T00:56:35;17.77;;;16.77;;
39066;SDS011;24821;51.988;6.020;2022-08-03T00:59:01;17.05;;;16.08;;
39066;SDS011;24821;51.988;6.020;2022-08-03T01:01:28;19.48;;;18.00;;
39066;SDS011;24821;51.988;6.020;2022-08-03T01:03:53;17.75;;;16.95;;
39066;SDS011;24821;51.988;6.020;2022-08-03T01:06:21;21.70;;;20.55;;
39066;SDS011;24821;51.988;6.020;2022-08-03T01:09:11;20.55;;;19.48;;
39066;SDS011;24821;51.988;6.020;2022-08-03T01:11:57;22.65;;;21.67;;
39066;SDS011;24821;51.988;6.020;2022-08-03T01:14:57;23.80;;;22.73;;
39066;SDS011;24821;51.988;6.020;2022-08-03T01:17:37;25.73;;;24.25;;
39066;SDS011;24821;51.988;6.020;2022-08-03T01:20:10;26.60;;;25.40;;
39066;SDS011;24821;51.988;6.020;2022-08-03T01:25:33;31.52;;;29.75;;
39066;SDS011;24821;51.988;6.020;2022-08-03T01:31:09;28.20;;;26.80;;
39066;SDS011;24821;51.988;6.020;2022-08-03T01:33:41;33.60;;;31.88;;
39066;SDS011;24821;51.988;6.020;2022-08-03T01:36:12;34.33;;;32.72;;
39066;SDS011;24821;51.988;6.020;2022-08-03T01:38:40;31.23;;;29.67;;
39066;SDS011;24821;51.988;6.020;2022-08-03T01:41:12;36.40;;;34.50;;
39066;SDS011;24821;51.988;6.020;2022-08-03T01:43:44;39.20;;;37.17;;
39066;SDS011;24821;51.988;6.020;2022-08-03T01:46:13;38.30;;;36.55;;
39066;SDS011;24821;51.988;6.020;2022-08-03T01:48:41;38.88;;;37.13;;
39066;SDS011;24821;51.988;6.020;2022-08-03T01:51:08;37.03;;;35.17;;
39066;SDS011;24821;51.988;6.020;2022-08-03T01:53:35;38.67;;;36.67;;
39066;SDS011;24821;51.988;6.020;2022-08-03T01:56:04;33.20;;;31.58;;
39066;SDS011;24821;51.988;6.020;2022-08-03T01:58:31;35.15;;;33.38;;
39066;SDS011;24821;51.988;6.020;2022-08-03T02:00:59;38.03;;;36.03;;
39066;SDS011;24821;51.988;6.020;2022-08-03T02:03:27;39.47;;;37.20;;
39066;SDS011;24821;51.988;6.020;2022-08-03T02:05:54;35.03;;;33.42;;
39066;SDS011;24821;51.988;6.020;2022-08-03T02:08:22;33.60;;;31.83;;
39066;SDS011;24821;51.988;6.020;2022-08-03T02:10:49;32.15;;;30.55;;
39066;SDS011;24821;51.988;6.020;2022-08-03T02:13:16;29.70;;;28.27;;
39066;SDS011;24821;51.988;6.020;2022-08-03T02:15:44;26.27;;;24.85;;
39066;SDS011;24821;51.988;6.020;2022-08-03T02:18:11;25.48;;;24.15;;
39066;SDS011;24821;51.988;6.020;2022-08-03T02:20:37;22.75;;;21.40;;
39066;SDS011;24821;51.988;6.020;2022-08-03T02:23:06;20.52;;;19.30;;
39066;SDS011;24821;51.988;6.020;2022-08-03T02:25:32;18.27;;;17.27;;
39066;SDS011;24821;51.988;6.020;2022-08-03T02:28:05;16.42;;;15.30;;
39066;SDS011;24821;51.988;6.020;2022-08-03T02:30:35;14.75;;;13.70;;
39066;SDS011;24821;51.988;6.020;2022-08-03T02:33:03;14.48;;;13.57;;
39066;SDS011;24821;51.988;6.020;2022-08-03T02:35:31;12.55;;;11.70;;
39066;SDS011;24821;51.988;6.020;2022-08-03T02:38:00;12.48;;;11.60;;
39066;SDS011;24821;51.988;6.020;2022-08-03T02:40:28;12.07;;;11.27;;
39066;SDS011;24821;51.988;6.020;2022-08-03T02:42:56;10.85;;;10.20;;
39066;SDS011;24821;51.988;6.020;2022-08-03T02:45:26;10.75;;;9.95;;
39066;SDS011;24821;51.988;6.020;2022-08-03T02:47:54;10.18;;;9.57;;
39066;SDS011;24821;51.988;6.020;2022-08-03T02:50:23;10.82;;;9.95;;
39066;SDS011;24821;51.988;6.020;2022-08-03T02:52:51;10.07;;;9.48;;
39066;SDS011;24821;51.988;6.020;2022-08-03T02:55:19;10.50;;;9.75;;
39066;SDS011;24821;51.988;6.020;2022-08-03T02:57:46;9.93;;;9.25;;
39066;SDS011;24821;51.988;6.020;2022-08-03T03:00:13;10.88;;;10.00;;
39066;SDS011;24821;51.988;6.020;2022-08-03T03:02:40;10.52;;;9.82;;
39066;SDS011;24821;51.988;6.020;2022-08-03T03:05:07;11.80;;;10.63;;
39066;SDS011;24821;51.988;6.020;2022-08-03T03:07:34;11.35;;;10.52;;
39066;SDS011;24821;51.988;6.020;2022-08-03T03:10:02;11.32;;;10.52;;
39066;SDS011;24821;51.988;6.020;2022-08-03T03:12:28;11.30;;;10.52;;
39066;SDS011;24821;51.988;6.020;2022-08-03T03:14:55;10.63;;;9.90;;
39066;SDS011;24821;51.988;6.020;2022-08-03T03:17:21;10.88;;;10.25;;
39066;SDS011;24821;51.988;6.020;2022-08-03T03:19:48;11.43;;;10.73;;
39066;SDS011;24821;51.988;6.020;2022-08-03T03:22:15;12.63;;;11.73;;
39066;SDS011;24821;51.988;6.020;2022-08-03T03:24:41;11.15;;;10.30;;
39066;SDS011;24821;51.988;6.020;2022-08-03T03:27:08;10.73;;;10.02;;
39066;SDS011;24821;51.988;6.020;2022-08-03T03:29:34;11.40;;;10.60;;
39066;SDS011;24821;51.988;6.020;2022-08-03T03:32:00;11.50;;;10.90;;
39066;SDS011;24821;51.988;6.020;2022-08-03T03:34:27;11.45;;;10.85;;
39066;SDS011;24821;51.988;6.020;2022-08-03T03:36:54;10.55;;;9.95;;
39066;SDS011;24821;51.988;6.020;2022-08-03T03:39:19;10.60;;;9.98;;
39066;SDS011;24821;51.988;6.020;2022-08-03T03:41:45;10.77;;;10.18;;
39066;SDS011;24821;51.988;6.020;2022-08-03T03:44:11;10.63;;;9.93;;
39066;SDS011;24821;51.988;6.020;2022-08-03T03:46:37;12.52;;;11.82;;
39066;SDS011;24821;51.988;6.020;2022-08-03T03:49:04;12.00;;;11.40;;
39066;SDS011;24821;51.988;6.020;2022-08-03T03:51:31;11.98;;;11.27;;
39066;SDS011;24821;51.988;6.020;2022-08-03T03:53:57;11.57;;;10.88;;
39066;SDS011;24821;51.988;6.020;2022-08-03T03:56:25;12.52;;;11.93;;
39066;SDS011;24821;51.988;6.020;2022-08-03T03:58:51;10.90;;;10.32;;
39066;SDS011;24821;51.988;6.020;2022-08-03T04:01:17;12.38;;;11.85;;
39066;SDS011;24821;51.988;6.020;2022-08-03T04:03:42;13.45;;;12.50;;
39066;SDS011;24821;51.988;6.020;2022-08-03T04:06:08;12.57;;;11.68;;
39066;SDS011;24821;51.988;6.020;2022-08-03T04:11:50;10.85;;;9.98;;
39066;SDS011;24821;51.988;6.020;2022-08-03T04:14:33;12.48;;;11.63;;
39066;SDS011;24821;51.988;6.020;2022-08-03T04:17:02;12.57;;;11.55;;
39066;SDS011;24821;51.988;6.020;2022-08-03T04:19:31;12.10;;;11.43;;
39066;SDS011;24821;51.988;6.020;2022-08-03T04:22:05;13.07;;;12.38;;
39066;SDS011;24821;51.988;6.020;2022-08-03T04:24:38;13.45;;;12.70;;
39066;SDS011;24821;51.988;6.020;2022-08-03T04:27:10;12.98;;;12.25;;
39066;SDS011;24821;51.988;6.020;2022-08-03T04:29:38;11.73;;;11.10;;
39066;SDS011;24821;51.988;6.020;2022-08-03T04:32:09;15.02;;;14.13;;
39066;SDS011;24821;51.988;6.020;2022-08-03T04:34:35;13.13;;;12.13;;
39066;SDS011;24821;51.988;6.020;2022-08-03T04:37:02;12.90;;;12.20;;
39066;SDS011;24821;51.988;6.020;2022-08-03T04:39:34;14.07;;;13.20;;
39066;SDS011;24821;51.988;6.020;2022-08-03T04:42:03;13.25;;;12.45;;
39066;SDS011;24821;51.988;6.020;2022-08-03T04:44:34;12.63;;;12.00;;
39066;SDS011;24821;51.988;6.020;2022-08-03T04:47:02;14.40;;;13.40;;
39066;SDS011;24821;51.988;6.020;2022-08-03T04:49:28;15.23;;;14.23;;
39066;SDS011;24821;51.988;6.020;2022-08-03T04:51:54;14.70;;;13.57;;
39066;SDS011;24821;51.988;6.020;2022-08-03T04:54:20;14.20;;;13.30;;
39066;SDS011;24821;51.988;6.020;2022-08-03T04:56:45;15.98;;;14.70;;
39066;SDS011;24821;51.988;6.020;2022-08-03T04:59:11;14.90;;;13.80;;
39066;SDS011;24821;51.988;6.020;2022-08-03T05:01:38;14.40;;;13.57;;
39066;SDS011;24821;51.988;6.020;2022-08-03T05:04:04;18.45;;;16.85;;
39066;SDS011;24821;51.988;6.020;2022-08-03T05:06:30;19.00;;;17.40;;
39066;SDS011;24821;51.988;6.020;2022-08-03T05:08:55;16.98;;;15.77;;
39066;SDS011;24821;51.988;6.020;2022-08-03T05:11:21;14.43;;;13.30;;
39066;SDS011;24821;51.988;6.020;2022-08-03T05:13:46;17.63;;;16.35;;
39066;SDS011;24821;51.988;6.020;2022-08-03T05:16:12;17.67;;;16.25;;
39066;SDS011;24821;51.988;6.020;2022-08-03T05:18:39;25.80;;;24.02;;
39066;SDS011;24821;51.988;6.020;2022-08-03T05:21:05;15.95;;;14.45;;
39066;SDS011;24821;51.988;6.020;2022-08-03T05:23:31;18.40;;;16.88;;
39066;SDS011;24821;51.988;6.020;2022-08-03T05:25:57;18.17;;;16.88;;
39066;SDS011;24821;51.988;6.020;2022-08-03T05:28:22;20.25;;;18.63;;
39066;SDS011;24821;51.988;6.020;2022-08-03T05:30:48;20.45;;;18.95;;
39066;SDS011;24821;51.988;6.020;2022-08-03T05:33:13;18.20;;;17.08;;
39066;SDS011;24821;51.988;6.020;2022-08-03T05:35:39;18.20;;;17.10;;
39066;SDS011;24821;51.988;6.020;2022-08-03T05:38:05;18.92;;;17.70;;
39066;SDS011;24821;51.988;6.020;2022-08-03T05:40:31;17.50;;;16.40;;
39066;SDS011;24821;51.988;6.020;2022-08-03T05:42:57;18.52;;;17.30;;
39066;SDS011;24821;51.988;6.020;2022-08-03T05:45:23;17.33;;;16.25;;
39066;SDS011;24821;51.988;6.020;2022-08-03T05:47:49;18.17;;;16.70;;
39066;SDS011;24821;51.988;6.020;2022-08-03T05:50:15;17.65;;;16.23;;
39066;SDS011;24821;51.988;6.020;2022-08-03T05:52:42;18.70;;;17.33;;
39066;SDS011;24821;51.988;6.020;2022-08-03T05:55:08;17.08;;;15.73;;
39066;SDS011;24821;51.988;6.020;2022-08-03T05:57:35;16.75;;;15.38;;
39066;SDS011;24821;51.988;6.020;2022-08-03T06:00:02;14.60;;;13.35;;
39066;SDS011;24821;51.988;6.020;2022-08-03T06:02:29;17.75;;;16.33;;
39066;SDS011;24821;51.988;6.020;2022-08-03T06:04:55;14.60;;;13.70;;
39066;SDS011;24821;51.988;6.020;2022-08-03T06:07:20;16.60;;;15.40;;
39066;SDS011;24821;51.988;6.020;2022-08-03T06:09:46;19.30;;;18.08;;
39066;SDS011;24821;51.988;6.020;2022-08-03T06:12:12;17.33;;;16.33;;
39066;SDS011;24821;51.988;6.020;2022-08-03T06:14:38;17.08;;;15.77;;
39066;SDS011;24821;51.988;6.020;2022-08-03T06:17:03;17.73;;;16.50;;
39066;SDS011;24821;51.988;6.020;2022-08-03T06:19:29;16.40;;;15.18;;
39066;SDS011;24821;51.988;6.020;2022-08-03T06:21:54;16.92;;;15.55;;
39066;SDS011;24821;51.988;6.020;2022-08-03T06:24:20;15.77;;;14.77;;
39066;SDS011;24821;51.988;6.020;2022-08-03T06:26:45;19.02;;;17.80;;
39066;SDS011;24821;51.988;6.020;2022-08-03T06:29:11;15.38;;;14.18;;
39066;SDS011;24821;51.988;6.020;2022-08-03T06:31:36;18.08;;;16.65;;
39066;SDS011;24821;51.988;6.020;2022-08-03T06:34:02;19.05;;;17.52;;
39066;SDS011;24821;51.988;6.020;2022-08-03T06:36:29;15.73;;;14.65;;
39066;SDS011;24821;51.988;6.020;2022-08-03T06:38:59;16.88;;;15.68;;
39066;SDS011;24821;51.988;6.020;2022-08-03T06:41:25;19.60;;;18.15;;
39066;SDS011;24821;51.988;6.020;2022-08-03T06:43:51;13.98;;;12.88;;
39066;SDS011;24821;51.988;6.020;2022-08-03T06:46:17;16.80;;;15.65;;
39066;SDS011;24821;51.988;6.020;2022-08-03T06:48:43;18.75;;;17.52;;
39066;SDS011;24821;51.988;6.020;2022-08-03T06:51:09;13.93;;;12.93;;
39066;SDS011;24821;51.988;6.020;2022-08-03T06:53:35;14.30;;;13.13;;
39066;SDS011;24821;51.988;6.020;2022-08-03T06:56:00;14.93;;;13.73;;
39066;SDS011;24821;51.988;6.020;2022-08-03T06:58:28;13.88;;;12.95;;
39066;SDS011;24821;51.988;6.020;2022-08-03T07:00:53;13.20;;;12.15;;
39066;SDS011;24821;51.988;6.020;2022-08-03T07:03:19;15.73;;;14.30;;
39066;SDS011;24821;51.988;6.020;2022-08-03T07:05:44;16.27;;;12.73;;
39066;SDS011;24821;51.988;6.020;2022-08-03T07:08:11;15.30;;;13.98;;
39066;SDS011;24821;51.988;6.020;2022-08-03T07:10:37;10.18;;;9.18;;
39066;SDS011;24821;51.988;6.020;2022-08-03T07:13:03;14.35;;;13.02;;
39066;SDS011;24821;51.988;6.020;2022-08-03T07:15:29;11.90;;;8.73;;
39066;SDS011;24821;51.988;6.020;2022-08-03T07:17:55;8.80;;;8.23;;
39066;SDS011;24821;51.988;6.020;2022-08-03T07:20:20;12.10;;;9.77;;
39066;SDS011;24821;51.988;6.020;2022-08-03T07:22:46;11.32;;;10.25;;
39066;SDS011;24821;51.988;6.020;2022-08-03T07:25:11;9.40;;;8.63;;
39066;SDS011;24821;51.988;6.020;2022-08-03T07:27:37;10.02;;;7.40;;
39066;SDS011;24821;51.988;6.020;2022-08-03T07:30:07;10.60;;;9.60;;
39066;SDS011;24821;51.988;6.020;2022-08-03T07:32:33;12.25;;;11.15;;
39066;SDS011;24821;51.988;6.020;2022-08-03T07:34:59;9.55;;;8.68;;
39066;SDS011;24821;51.988;6.020;2022-08-03T07:37:25;9.90;;;8.90;;
39066;SDS011;24821;51.988;6.020;2022-08-03T07:39:50;10.60;;;9.27;;
39066;SDS011;24821;51.988;6.020;2022-08-03T07:42:16;10.80;;;9.70;;
39066;SDS011;24821;51.988;6.020;2022-08-03T07:44:41;12.70;;;10.77;;
39066;SDS011;24821;51.988;6.020;2022-08-03T07:47:07;14.27;;;10.68;;
39066;SDS011;24821;51.988;6.020;2022-08-03T07:49:32;11.75;;;10.65;;
39066;SDS011;24821;51.988;6.020;2022-08-03T07:51:58;9.95;;;8.95;;
39066;SDS011;24821;51.988;6.020;2022-08-03T07:57:07;11.20;;;10.10;;
39066;SDS011;24821;51.988;6.020;2022-08-03T07:59:33;13.75;;;12.63;;
39066;SDS011;24821;51.988;6.020;2022-08-03T08:01:59;14.00;;;12.90;;
39066;SDS011;24821;51.988;6.020;2022-08-03T08:04:24;13.85;;;12.52;;
39066;SDS011;24821;51.988;6.020;2022-08-03T08:06:50;17.85;;;16.55;;
39066;SDS011;24821;51.988;6.020;2022-08-03T08:09:16;18.65;;;17.17;;
39066;SDS011;24821;51.988;6.020;2022-08-03T08:11:41;20.83;;;19.50;;
39066;SDS011;24821;51.988;6.020;2022-08-03T08:14:07;16.85;;;15.55;;
39066;SDS011;24821;51.988;6.020;2022-08-03T08:16:33;20.35;;;18.92;;
39066;SDS011;24821;51.988;6.020;2022-08-03T08:18:59;17.88;;;16.73;;
39066;SDS011;24821;51.988;6.020;2022-08-03T08:21:25;18.55;;;17.05;;
39066;SDS011;24821;51.988;6.020;2022-08-03T08:23:51;22.75;;;21.25;;
39066;SDS011;24821;51.988;6.020;2022-08-03T08:26:17;17.05;;;15.68;;
39066;SDS011;24821;51.988;6.020;2022-08-03T08:28:42;16.75;;;15.45;;
39066;SDS011;24821;51.988;6.020;2022-08-03T08:31:08;18.88;;;17.23;;
39066;SDS011;24821;51.988;6.020;2022-08-03T08:33:33;20.83;;;19.33;;
39066;SDS011;24821;51.988;6.020;2022-08-03T08:36:00;16.00;;;14.77;;
39066;SDS011;24821;51.988;6.020;2022-08-03T08:38:25;13.23;;;12.13;;
39066;SDS011;24821;51.988;6.020;2022-08-03T08:40:53;15.10;;;14.00;;
39066;SDS011;24821;51.988;6.020;2022-08-03T08:43:20;13.23;;;11.77;;
39066;SDS011;24821;51.988;6.020;2022-08-03T08:45:47;10.13;;;9.10;;
39066;SDS011;24821;51.988;6.020;2022-08-03T08:48:14;12.45;;;10.23;;
39066;SDS011;24821;51.988;6.020;2022-08-03T08:50:46;12.65;;;10.52;;
39066;SDS011;24821;51.988;6.020;2022-08-03T08:53:13;22.10;;;13.20;;
39066;SDS011;24821;51.988;6.020;2022-08-03T08:55:40;13.80;;;12.40;;
39066;SDS011;24821;51.988;6.020;2022-08-03T08:58:06;13.70;;;12.27;;
39066;SDS011;24821;51.988;6.020;2022-08-03T09:00:34;14.35;;;12.82;;
39066;SDS011;24821;51.988;6.020;2022-08-03T09:03:00;14.32;;;13.00;;
39066;SDS011;24821;51.988;6.020;2022-08-03T09:05:26;13.18;;;11.82;;
39066;SDS011;24821;51.988;6.020;2022-08-03T09:07:51;13.32;;;11.45;;
39066;SDS011;24821;51.988;6.020;2022-08-03T09:10:17;15.73;;;12.27;;
39066;SDS011;24821;51.988;6.020;2022-08-03T09:12:46;12.45;;;8.10;;
39066;SDS011;24821;51.988;6.020;2022-08-03T09:17:41;9.80;;;6.35;;
39066;SDS011;24821;51.988;6.020;2022-08-03T09:20:07;8.27;;;5.90;;
39066;SDS011;24821;51.988;6.020;2022-08-03T09:22:33;9.23;;;7.22;;
39066;SDS011;24821;51.988;6.020;2022-08-03T09:25:00;13.90;;;7.50;;
39066;SDS011;24821;51.988;6.020;2022-08-03T09:27:40;10.48;;;8.00;;
39066;SDS011;24821;51.988;6.020;2022-08-03T09:30:15;9.15;;;6.80;;
39066;SDS011;24821;51.988;6.020;2022-08-03T09:32:42;12.48;;;7.47;;
39066;SDS011;24821;51.988;6.020;2022-08-03T09:35:10;9.18;;;8.18;;
39066;SDS011;24821;51.988;6.020;2022-08-03T09:37:37;9.88;;;8.32;;
39066;SDS011;24821;51.988;6.020;2022-08-03T09:40:03;14.15;;;9.40;;
39066;SDS011;24821;51.988;6.020;2022-08-03T09:42:30;16.15;;;11.60;;
39066;SDS011;24821;51.988;6.020;2022-08-03T09:44:55;16.75;;;8.93;;
39066;SDS011;24821;51.988;6.020;2022-08-03T09:47:32;13.00;;;10.73;;
39066;SDS011;24821;51.988;6.020;2022-08-03T09:52:35;9.45;;;8.32;;
39066;SDS011;24821;51.988;6.020;2022-08-03T09:55:09;13.85;;;10.55;;
39066;SDS011;24821;51.988;6.020;2022-08-03T09:57:37;12.57;;;9.88;;
39066;SDS011;24821;51.988;6.020;2022-08-03T10:00:11;14.43;;;9.40;;
39066;SDS011;24821;51.988;6.020;2022-08-03T10:02:39;11.85;;;10.82;;
39066;SDS011;24821;51.988;6.020;2022-08-03T10:05:06;8.77;;;7.93;;
39066;SDS011;24821;51.988;6.020;2022-08-03T10:10:09;13.20;;;8.18;;
39066;SDS011;24821;51.988;6.020;2022-08-03T10:12:35;11.20;;;10.02;;
39066;SDS011;24821;51.988;6.020;2022-08-03T10:15:02;9.75;;;8.10;;
39066;SDS011;24821;51.988;6.020;2022-08-03T10:17:28;10.95;;;9.23;;
39066;SDS011;24821;51.988;6.020;2022-08-03T10:19:53;9.90;;;8.90;;
39066;SDS011;24821;51.988;6.020;2022-08-03T10:22:22;11.35;;;9.52;;
39066;SDS011;24821;51.988;6.020;2022-08-03T10:27:32;12.88;;;11.52;;
39066;SDS011;24821;51.988;6.020;2022-08-03T10:29:59;12.35;;;11.15;;
39066;SDS011;24821;51.988;6.020;2022-08-03T10:35:16;14.48;;;9.80;;
39066;SDS011;24821;51.988;6.020;2022-08-03T10:37:46;12.80;;;11.82;;
39066;SDS011;24821;51.988;6.020;2022-08-03T10:40:19;14.57;;;13.32;;
39066;SDS011;24821;51.988;6.020;2022-08-03T10:42:46;16.30;;;12.23;;
39066;SDS011;24821;51.988;6.020;2022-08-03T10:47:46;14.45;;;11.73;;
39066;SDS011;24821;51.988;6.020;2022-08-03T10:50:12;14.13;;;11.43;;
39066;SDS011;24821;51.988;6.020;2022-08-03T10:55:34;13.32;;;12.20;;
39066;SDS011;24821;51.988;6.020;2022-08-03T11:01:08;16.02;;;14.40;;
39066;SDS011;24821;51.988;6.020;2022-08-03T11:04:13;8.98;;;7.75;;
39066;SDS011;24821;51.988;6.020;2022-08-03T11:06:40;12.95;;;11.02;;
39066;SDS011;24821;51.988;6.020;2022-08-03T11:11:34;12.63;;;8.43;;
39066;SDS011;24821;51.988;6.020;2022-08-03T11:14:04;15.20;;;13.70;;
39066;SDS011;24821;51.988;6.020;2022-08-03T11:16:39;11.55;;;10.35;;
39066;SDS011;24821;51.988;6.020;2022-08-03T11:19:09;9.15;;;6.57;;
39066;SDS011;24821;51.988;6.020;2022-08-03T11:40:43;8.85;;;6.43;;
39066;SDS011;24821;51.988;6.020;2022-08-03T11:48:46;9.70;;;7.95;;
39066;SDS011;24821;51.988;6.020;2022-08-03T11:51:18;11.45;;;9.93;;
39066;SDS011;24821;51.988;6.020;2022-08-03T11:53:58;12.38;;;10.63;;
39066;SDS011;24821;51.988;6.020;2022-08-03T11:56:42;8.23;;;6.95;;
39066;SDS011;24821;51.988;6.020;2022-08-03T11:59:09;9.90;;;6.53;;
39066;SDS011;24821;51.988;6.020;2022-08-03T12:01:34;9.73;;;8.82;;
39066;SDS011;24821;51.988;6.020;2022-08-03T12:04:02;9.88;;;8.85;;
39066;SDS011;24821;51.988;6.020;2022-08-03T12:06:29;9.38;;;8.48;;
39066;SDS011;24821;51.988;6.020;2022-08-03T12:08:54;8.27;;;7.43;;
39066;SDS011;24821;51.988;6.020;2022-08-03T12:11:20;10.68;;;7.75;;
39066;SDS011;24821;51.988;6.020;2022-08-03T12:13:47;10.45;;;7.50;;
39066;SDS011;24821;51.988;6.020;2022-08-03T12:16:22;12.25;;;8.48;;
39066;SDS011;24821;51.988;6.020;2022-08-03T12:18:53;9.63;;;8.75;;
39066;SDS011;24821;51.988;6.020;2022-08-03T12:21:23;7.28;;;6.60;;
39066;SDS011;24821;51.988;6.020;2022-08-03T12:23:49;10.00;;;9.18;;
39066;SDS011;24821;51.988;6.020;2022-08-03T12:26:14;9.93;;;7.80;;
39066;SDS011;24821;51.988;6.020;2022-08-03T12:28:46;9.23;;;8.30;;
39066;SDS011;24821;51.988;6.020;2022-08-03T12:31:12;9.75;;;8.25;;
39066;SDS011;24821;51.988;6.020;2022-08-03T12:36:31;8.70;;;7.88;;
39066;SDS011;24821;51.988;6.020;2022-08-03T12:38:59;10.00;;;8.05;;
39066;SDS011;24821;51.988;6.020;2022-08-03T12:41:31;9.88;;;8.82;;
39066;SDS011;24821;51.988;6.020;2022-08-03T12:44:02;8.63;;;7.80;;
39066;SDS011;24821;51.988;6.020;2022-08-03T12:46:29;11.25;;;7.03;;
39066;SDS011;24821;51.988;6.020;2022-08-03T12:49:13;8.90;;;7.93;;
39066;SDS011;24821;51.988;6.020;2022-08-03T12:54:06;9.18;;;8.27;;
39066;SDS011;24821;51.988;6.020;2022-08-03T12:56:32;11.55;;;6.47;;
39066;SDS011;24821;51.988;6.020;2022-08-03T12:58:58;9.38;;;6.97;;
39066;SDS011;24821;51.988;6.020;2022-08-03T13:01:24;8.63;;;6.97;;
39066;SDS011;24821;51.988;6.020;2022-08-03T13:03:51;14.25;;;7.50;;
39066;SDS011;24821;51.988;6.020;2022-08-03T13:06:24;6.97;;;5.78;;
39066;SDS011;24821;51.988;6.020;2022-08-03T13:09:06;8.32;;;6.70;;
39066;SDS011;24821;51.988;6.020;2022-08-03T13:11:32;7.57;;;6.97;;
39066;SDS011;24821;51.988;6.020;2022-08-03T13:13:58;6.32;;;5.72;;
39066;SDS011;24821;51.988;6.020;2022-08-03T13:16:23;6.68;;;6.05;;
39066;SDS011;24821;51.988;6.020;2022-08-03T13:18:49;8.43;;;5.43;;
39066;SDS011;24821;51.988;6.020;2022-08-03T13:21:16;9.20;;;5.30;;
39066;SDS011;24821;51.988;6.020;2022-08-03T13:23:43;8.48;;;7.63;;
39066;SDS011;24821;51.988;6.020;2022-08-03T13:26:09;6.40;;;5.90;;
39066;SDS011;24821;51.988;6.020;2022-08-03T13:28:36;5.43;;;4.97;;
39066;SDS011;24821;51.988;6.020;2022-08-03T13:31:02;6.57;;;6.07;;
39066;SDS011;24821;51.988;6.020;2022-08-03T13:33:28;5.95;;;5.47;;
39066;SDS011;24821;51.988;6.020;2022-08-03T13:35:54;7.13;;;5.55;;
39066;SDS011;24821;51.988;6.020;2022-08-03T13:38:19;6.85;;;5.45;;
39066;SDS011;24821;51.988;6.020;2022-08-03T13:40:45;5.95;;;5.45;;
39066;SDS011;24821;51.988;6.020;2022-08-03T13:43:11;7.05;;;5.47;;
39066;SDS011;24821;51.988;6.020;2022-08-03T13:45:36;5.18;;;4.85;;
39066;SDS011;24821;51.988;6.020;2022-08-03T13:48:02;5.88;;;4.63;;
39066;SDS011;24821;51.988;6.020;2022-08-03T13:50:28;7.07;;;6.38;;
39066;SDS011;24821;51.988;6.020;2022-08-03T13:52:55;6.97;;;6.35;;
39066;SDS011;24821;51.988;6.020;2022-08-03T13:55:21;5.78;;;5.38;;
39066;SDS011;24821;51.988;6.020;2022-08-03T13:57:46;6.18;;;5.78;;
39066;SDS011;24821;51.988;6.020;2022-08-03T14:00:12;9.77;;;6.55;;
39066;SDS011;24821;51.988;6.020;2022-08-03T14:02:38;6.10;;;5.70;;
39066;SDS011;24821;51.988;6.020;2022-08-03T14:05:04;5.40;;;4.90;;
39066;SDS011;24821;51.988;6.020;2022-08-03T14:07:30;6.80;;;6.20;;
39066;SDS011;24821;51.988;6.020;2022-08-03T14:09:55;5.63;;;5.18;;
39066;SDS011;24821;51.988;6.020;2022-08-03T14:12:21;6.50;;;5.90;;
39066;SDS011;24821;51.988;6.020;2022-08-03T14:14:46;8.02;;;7.32;;
39066;SDS011;24821;51.988;6.020;2022-08-03T14:17:12;6.35;;;5.75;;
39066;SDS011;24821;51.988;6.020;2022-08-03T14:19:37;6.10;;;5.60;;
39066;SDS011;24821;51.988;6.020;2022-08-03T14:22:03;5.82;;;5.50;;
39066;SDS011;24821;51.988;6.020;2022-08-03T14:24:28;5.22;;;5.00;;
39066;SDS011;24821;51.988;6.020;2022-08-03T14:26:54;6.72;;;6.20;;
39066;SDS011;24821;51.988;6.020;2022-08-03T14:29:19;6.72;;;6.32;;
39066;SDS011;24821;51.988;6.020;2022-08-03T14:31:45;5.72;;;5.43;;
39066;SDS011;24821;51.988;6.020;2022-08-03T14:34:10;7.25;;;5.80;;
39066;SDS011;24821;51.988;6.020;2022-08-03T14:36:36;5.63;;;5.32;;
39066;SDS011;24821;51.988;6.020;2022-08-03T14:39:01;5.88;;;5.47;;
39066;SDS011;24821;51.988;6.020;2022-08-03T14:41:27;6.35;;;5.93;;
39066;SDS011;24821;51.988;6.020;2022-08-03T14:43:53;6.18;;;5.68;;
39066;SDS011;24821;51.988;6.020;2022-08-03T14:46:20;6.35;;;5.88;;
39066;SDS011;24821;51.988;6.020;2022-08-03T14:48:46;5.68;;;5.20;;
39066;SDS011;24821;51.988;6.020;2022-08-03T14:51:11;6.60;;;6.00;;
39066;SDS011;24821;51.988;6.020;2022-08-03T14:53:37;7.25;;;6.90;;
39066;SDS011;24821;51.988;6.020;2022-08-03T14:56:02;8.02;;;7.38;;
39066;SDS011;24821;51.988;6.020;2022-08-03T14:58:28;6.82;;;6.13;;
39066;SDS011;24821;51.988;6.020;2022-08-03T15:00:54;7.35;;;6.95;;
39066;SDS011;24821;51.988;6.020;2022-08-03T15:03:21;5.63;;;5.22;;
39066;SDS011;24821;51.988;6.020;2022-08-03T15:05:48;5.07;;;4.78;;
39066;SDS011;24821;51.988;6.020;2022-08-03T15:08:22;8.40;;;7.47;;
39066;SDS011;24821;51.988;6.020;2022-08-03T15:10:49;6.20;;;5.60;;
39066;SDS011;24821;51.988;6.020;2022-08-03T15:13:15;7.32;;;6.82;;
39066;SDS011;24821;51.988;6.020;2022-08-03T15:15:41;5.70;;;5.40;;
39066;SDS011;24821;51.988;6.020;2022-08-03T15:18:06;6.50;;;6.00;;
39066;SDS011;24821;51.988;6.020;2022-08-03T15:20:32;4.93;;;4.72;;
39066;SDS011;24821;51.988;6.020;2022-08-03T15:22:58;6.47;;;6.07;;
39066;SDS011;24821;51.988;6.020;2022-08-03T15:25:23;6.03;;;5.72;;
39066;SDS011;24821;51.988;6.020;2022-08-03T15:27:49;8.57;;;7.90;;
39066;SDS011;24821;51.988;6.020;2022-08-03T15:30:15;5.38;;;5.07;;
39066;SDS011;24821;51.988;6.020;2022-08-03T15:32:41;6.93;;;6.30;;
39066;SDS011;24821;51.988;6.020;2022-08-03T15:35:06;6.30;;;5.80;;
39066;SDS011;24821;51.988;6.020;2022-08-03T15:37:32;5.55;;;5.00;;